createdAt,value
2018-12-10T00:00:10.653Z,101127.96
2018-12-10T00:02:39.595Z,101146.88
2018-12-10T00:05:08.520Z,101147.08
2018-12-10T00:07:37.420Z,101154.16
2018-12-10T00:10:06.483Z,101166.41
2018-12-10T00:12:35.389Z,101168.16
2018-12-10T00:15:04.512Z,101157.55
2018-12-10T00:17:33.469Z,101167.77
2018-12-10T00:20:02.373Z,101168.55
2018-12-10T00:22:31.275Z,101172.69
2018-12-10T00:25:00.195Z,101176.77
2018-12-10T00:27:29.165Z,101179.07
2018-12-10T00:29:57.987Z,101184.39
2018-12-10T00:32:26.947Z,101179.87
2018-12-10T00:34:55.863Z,101184.20
2018-12-10T00:37:24.794Z,101187.18
2018-12-10T00:39:53.703Z,101187.76
2018-12-10T00:42:22.626Z,101199.36
2018-12-10T00:44:51.531Z,101201.17
2018-12-10T00:47:20.458Z,101187.53
2018-12-10T00:49:49.373Z,101186.84
2018-12-10T00:52:18.275Z,101191.53
2018-12-10T00:54:47.173Z,101199.95
2018-12-10T00:57:16.103Z,101198.44
2018-12-10T00:59:45.011Z,101202.35
2018-12-10T01:02:13.933Z,101209.77
2018-12-10T01:04:42.827Z,101209.33
2018-12-10T01:07:11.740Z,101222.08
2018-12-10T01:09:40.660Z,101229.30
2018-12-10T01:12:09.550Z,101228.77
2018-12-10T01:14:38.461Z,101228.95
2018-12-10T01:17:07.433Z,101237.27
2018-12-10T01:19:36.358Z,101239.89
2018-12-10T01:22:05.294Z,101253.34
2018-12-10T01:24:34.183Z,101254.85
2018-12-10T01:27:03.113Z,101246.42
2018-12-10T01:29:32.027Z,101246.23
2018-12-10T01:32:01.026Z,101251.04
2018-12-10T01:34:29.851Z,101248.28
2018-12-10T01:36:58.763Z,101247.91
2018-12-10T01:39:27.779Z,101256.16
2018-12-10T01:41:56.705Z,101256.12
2018-12-10T01:44:25.598Z,101262.19
2018-12-10T01:46:54.500Z,101260.84
2018-12-10T01:49:23.456Z,101266.12
2018-12-10T01:51:52.321Z,101267.37
2018-12-10T01:54:21.240Z,101271.38
2018-12-10T01:56:50.156Z,101275.89
2018-12-10T01:59:19.096Z,101282.13
2018-12-10T02:01:47.999Z,101280.14
2018-12-10T02:04:16.909Z,101306.34
2018-12-10T02:06:45.807Z,101326.21
2018-12-10T02:09:14.728Z,101331.50
2018-12-10T02:11:43.745Z,101306.51
2018-12-10T02:14:12.557Z,101300.17
2018-12-10T02:16:41.437Z,101309.48
2018-12-10T02:19:10.378Z,101297.14
2018-12-10T02:21:39.255Z,101310.09
2018-12-10T02:24:08.225Z,101296.84
2018-12-10T02:26:37.130Z,101299.04
2018-12-10T02:29:15.741Z,101301.52
2018-12-10T02:31:44.642Z,101292.30
2018-12-10T02:34:13.569Z,101290.30
2018-12-10T02:36:42.461Z,101295.86
2018-12-10T02:39:11.403Z,101304.89
2018-12-10T02:41:40.268Z,101311.31
2018-12-10T02:44:09.178Z,101306.51
2018-12-10T02:46:38.094Z,101301.61
2018-12-10T02:49:07.030Z,101305.94
2018-12-10T02:51:35.974Z,101308.72
2018-12-10T02:54:04.895Z,101320.03
2018-12-10T02:56:33.796Z,101332.27
2018-12-10T02:59:02.696Z,101335.04
2018-12-10T03:01:31.625Z,101322.73
2018-12-10T03:04:00.525Z,101329.66
2018-12-10T03:06:29.434Z,101326.34
2018-12-10T03:08:58.336Z,101319.58
2018-12-10T03:11:27.204Z,101323.17
2018-12-10T03:13:56.125Z,101329.03
2018-12-10T03:16:25.003Z,101333.42
2018-12-10T03:18:53.920Z,101345.80
2018-12-10T03:21:22.804Z,101361.38
2018-12-10T03:23:51.702Z,101379.16
2018-12-10T03:26:20.581Z,101384.05
2018-12-10T03:28:49.489Z,101394.80
2018-12-10T03:31:18.385Z,101365.98
2018-12-10T03:33:47.279Z,101346.02
2018-12-10T03:36:16.170Z,101356.86
2018-12-10T03:38:45.088Z,101361.11
2018-12-10T03:41:13.982Z,101368.28
2018-12-10T03:43:42.856Z,101368.83
2018-12-10T03:46:11.754Z,101373.28
2018-12-10T03:48:40.651Z,101368.67
2018-12-10T03:51:09.580Z,101370.86
2018-12-10T03:53:38.463Z,101373.72
2018-12-10T03:56:07.401Z,101372.99
2018-12-10T03:58:36.300Z,101373.50
2018-12-10T04:01:05.207Z,101380.53
2018-12-10T04:03:34.112Z,101371.52
2018-12-10T04:06:03.051Z,101374.47
2018-12-10T04:08:31.967Z,101385.70
2018-12-10T04:11:00.876Z,101383.87
2018-12-10T04:13:29.825Z,101390.67
2018-12-10T04:15:58.798Z,101390.24
2018-12-10T04:18:27.692Z,101395.75
2018-12-10T04:20:56.589Z,101400.51
2018-12-10T04:23:25.529Z,101404.27
2018-12-10T04:25:54.458Z,101406.89
2018-12-10T04:28:23.364Z,101405.38
2018-12-10T04:30:52.273Z,101405.46
2018-12-10T04:33:21.178Z,101411.14
2018-12-10T04:35:50.068Z,101411.53
2018-12-10T04:38:18.999Z,101409.97
2018-12-10T04:40:47.884Z,101408.71
2018-12-10T04:43:16.828Z,101413.30
2018-12-10T04:45:45.789Z,101412.16
2018-12-10T04:48:14.662Z,101418.79
2018-12-10T04:50:43.576Z,101414.06
2018-12-10T04:53:12.505Z,101412.31
2018-12-10T04:55:41.445Z,101414.13
2018-12-10T04:58:10.396Z,101415.27
2018-12-10T05:00:39.295Z,101417.59
2018-12-10T05:03:08.176Z,101423.72
2018-12-10T05:05:40.186Z,101432.95
2018-12-10T05:08:09.167Z,101430.65
2018-12-10T05:10:38.097Z,101438.31
2018-12-10T05:13:07.056Z,101439.74
2018-12-10T05:15:35.964Z,101449.70
2018-12-10T05:18:04.913Z,101444.33
2018-12-10T05:20:33.815Z,101444.64
2018-12-10T05:23:02.715Z,101446.77
2018-12-10T05:25:31.620Z,101457.67
2018-12-10T05:28:00.524Z,101454.56
2018-12-10T05:30:29.471Z,101454.42
2018-12-10T05:32:58.395Z,101455.77
2018-12-10T05:35:27.344Z,101456.72
2018-12-10T05:37:56.263Z,101462.23
2018-12-10T05:40:25.205Z,101464.61
2018-12-10T05:42:54.173Z,101468.75
2018-12-10T05:45:23.110Z,101466.06
2018-12-10T05:47:52.078Z,101463.91
2018-12-10T05:50:21.096Z,101465.59
2018-12-10T05:52:50.619Z,101472.69
2018-12-10T05:55:19.275Z,101473.34
2018-12-10T05:57:48.386Z,101478.83
2018-12-10T06:00:17.433Z,101484.20
2018-12-10T06:02:46.501Z,101493.12
2018-12-10T06:05:15.557Z,101493.00
2018-12-10T06:07:44.595Z,101490.63
2018-12-10T06:10:13.628Z,101491.02
2018-12-10T06:12:42.706Z,101488.93
2018-12-10T06:15:11.750Z,101489.95
2018-12-10T06:17:40.924Z,101499.05
2018-12-10T06:20:09.967Z,101498.48
2018-12-10T06:22:39.020Z,101503.67
2018-12-10T06:25:08.297Z,101502.74
2018-12-10T06:27:37.480Z,101506.77
2018-12-10T06:30:07.043Z,101510.52
2018-12-10T06:32:36.082Z,101512.98
2018-12-10T06:35:07.871Z,101514.47
2018-12-10T06:37:37.729Z,101516.29
2018-12-10T06:40:06.721Z,101507.61
2018-12-10T06:42:35.760Z,101518.48
2018-12-10T06:45:05.227Z,101528.59
2018-12-10T06:47:34.256Z,101519.09
2018-12-10T06:50:03.349Z,101514.89
2018-12-10T06:52:32.436Z,101518.36
2018-12-10T06:55:01.676Z,101516.42
2018-12-10T06:57:30.502Z,101531.20
2018-12-10T06:59:59.653Z,101529.94
2018-12-10T07:02:28.702Z,101528.87
2018-12-10T07:04:59.837Z,101529.52
2018-12-10T07:07:26.797Z,101536.44
2018-12-10T07:09:55.858Z,101542.84
2018-12-10T07:12:24.904Z,101541.10
2018-12-10T07:14:53.966Z,101537.32
2018-12-10T07:17:23.071Z,101548.54
2018-12-10T07:19:52.116Z,101554.58
2018-12-10T07:22:21.178Z,101557.27
2018-12-10T07:24:50.223Z,101560.61
2018-12-10T07:27:19.341Z,101560.30
2018-12-10T07:29:48.390Z,101556.31
2018-12-10T07:32:17.420Z,101560.20
2018-12-10T07:34:46.465Z,101557.31
2018-12-10T07:37:15.526Z,101565.88
2018-12-10T07:39:47.492Z,101563.28
2018-12-10T07:42:16.601Z,101570.78
2018-12-10T07:44:45.666Z,101578.79
2018-12-10T07:47:14.681Z,101588.78
2018-12-10T07:49:43.708Z,101592.56
2018-12-10T07:52:12.830Z,101582.67
2018-12-10T07:54:41.817Z,101577.45
2018-12-10T07:57:10.973Z,101581.41
2018-12-10T07:59:40.130Z,101584.50
2018-12-10T08:02:09.262Z,101582.77
2018-12-10T08:04:38.293Z,101589.30
2018-12-10T08:07:07.522Z,101590.02
2018-12-10T08:09:36.586Z,101591.54
2018-12-10T08:12:05.793Z,101588.55
2018-12-10T08:14:35.176Z,101596.36
2018-12-10T08:17:04.228Z,101599.13
2018-12-10T08:19:33.286Z,101605.84
2018-12-10T08:22:02.338Z,101608.29
2018-12-10T08:24:31.399Z,101605.77
2018-12-10T08:27:00.438Z,101610.27
2018-12-10T08:29:29.488Z,101607.03
2018-12-10T08:31:58.575Z,101614.85
2018-12-10T08:34:27.603Z,101620.25
2018-12-10T08:36:56.683Z,101624.81
2018-12-10T08:39:25.712Z,101625.33
2018-12-10T08:41:54.943Z,101629.99
2018-12-10T08:44:23.587Z,101626.64
2018-12-10T08:46:52.478Z,101631.27
2018-12-10T08:49:21.382Z,101639.04
2018-12-10T08:51:50.276Z,101633.32
2018-12-10T08:54:19.233Z,101643.70
2018-12-10T08:56:48.200Z,101648.80
2018-12-10T08:59:17.048Z,101647.37
2018-12-10T09:01:45.967Z,101659.94
2018-12-10T09:04:14.895Z,101669.45
2018-12-10T09:06:43.840Z,101672.06
2018-12-10T09:09:12.758Z,101672.80
2018-12-10T09:11:41.683Z,101663.67
2018-12-10T09:14:10.573Z,101665.03
2018-12-10T09:16:39.534Z,101650.61
2018-12-10T09:19:08.611Z,101646.48
2018-12-10T09:21:37.531Z,101653.30
2018-12-10T09:24:06.594Z,101659.86
2018-12-10T09:26:35.481Z,101668.23
2018-12-10T09:29:04.405Z,101656.89
2018-12-10T09:31:33.276Z,101657.16
2018-12-10T09:34:02.214Z,101654.00
2018-12-10T09:36:31.116Z,101654.05
2018-12-10T09:38:59.998Z,101654.00
2018-12-10T09:41:28.878Z,101657.33
2018-12-10T09:43:57.789Z,101648.98
2018-12-10T09:46:27.577Z,101651.98
2018-12-10T09:48:55.590Z,101641.53
2018-12-10T09:51:24.483Z,101654.94
2018-12-10T09:53:53.357Z,101666.28
2018-12-10T09:56:22.276Z,101687.66
2018-12-10T09:58:51.179Z,101693.79
2018-12-10T10:01:20.099Z,101693.51
2018-12-10T10:03:49.022Z,101693.55
2018-12-10T10:06:18.211Z,101700.10
2018-12-10T10:08:46.999Z,101701.16
2018-12-10T10:11:15.908Z,101694.33
2018-12-10T10:13:44.806Z,101690.65
2018-12-10T10:16:13.726Z,101686.88
2018-12-10T10:18:42.626Z,101685.80
2018-12-10T10:21:11.657Z,101669.72
2018-12-10T10:23:40.456Z,101660.80
2018-12-10T10:26:09.378Z,101660.43
2018-12-10T10:28:38.288Z,101654.20
2018-12-10T10:31:07.362Z,101652.62
2018-12-10T10:33:36.244Z,101648.36
2018-12-10T10:36:05.212Z,101646.39
2018-12-10T10:38:34.064Z,101648.67
2018-12-10T10:41:03.075Z,101650.55
2018-12-10T10:43:31.899Z,101650.72
2018-12-10T10:46:00.810Z,101657.37
2018-12-10T10:48:29.733Z,101647.48
2018-12-10T10:50:58.616Z,101653.13
2018-12-10T10:53:27.555Z,101647.86
2018-12-10T10:55:56.448Z,101649.65
2018-12-10T10:58:25.375Z,101659.20
2018-12-10T11:01:12.179Z,101661.40
2018-12-10T11:03:41.083Z,101664.82
2018-12-10T11:06:10.085Z,101668.48
2018-12-10T11:08:39.003Z,101678.55
2018-12-10T11:11:07.962Z,101688.75
2018-12-10T11:13:36.873Z,101684.20
2018-12-10T11:16:05.960Z,101676.21
2018-12-10T11:18:34.863Z,101670.60
2018-12-10T11:21:03.788Z,101671.19
2018-12-10T11:23:32.715Z,101680.12
2018-12-10T11:26:01.628Z,101678.66
2018-12-10T11:28:30.564Z,101673.90
2018-12-10T11:30:59.488Z,101664.27
2018-12-10T11:33:28.381Z,101664.30
2018-12-10T11:35:57.286Z,101663.40
2018-12-10T11:38:26.184Z,101661.25
2018-12-10T11:40:55.079Z,101647.81
2018-12-10T11:43:24.012Z,101654.30
2018-12-10T11:45:52.919Z,101651.39
2018-12-10T11:48:21.817Z,101643.93
2018-12-10T11:50:50.703Z,101643.73
2018-12-10T11:53:19.590Z,101644.53
2018-12-10T11:55:48.489Z,101643.37
2018-12-10T11:58:17.362Z,101640.52
2018-12-10T12:00:46.250Z,101634.57
2018-12-10T12:03:15.193Z,101633.95
2018-12-10T12:05:44.163Z,101642.92
2018-12-10T12:08:13.042Z,101635.46
2018-12-10T12:10:41.941Z,101639.14
2018-12-10T12:13:11.262Z,101640.79
2018-12-10T12:15:40.154Z,101639.27
2018-12-10T12:18:09.208Z,101646.66
2018-12-10T12:20:38.104Z,101645.31
2018-12-10T12:23:07.253Z,101649.96
2018-12-10T12:25:36.176Z,101647.17
2018-12-10T12:28:05.104Z,101645.09
2018-12-10T12:30:34.016Z,101644.25
2018-12-10T12:33:02.954Z,101646.84
2018-12-10T12:35:32.239Z,101649.06
2018-12-10T12:38:01.109Z,101647.01
2018-12-10T12:40:33.003Z,101644.58
2018-12-10T12:43:08.581Z,101654.37
2018-12-10T12:45:40.687Z,101643.39
2018-12-10T12:48:10.218Z,101650.55
2018-12-10T12:50:39.656Z,101642.16
2018-12-10T12:53:09.212Z,101647.56
2018-12-10T12:55:46.549Z,101645.30
2018-12-10T12:58:14.460Z,101638.84
2018-12-10T13:00:46.468Z,101662.23
2018-12-10T13:03:15.969Z,101670.00
2018-12-10T13:05:45.421Z,101668.86
2018-12-10T13:08:20.650Z,101666.53
2018-12-10T13:10:51.111Z,101665.34
2018-12-10T13:13:20.479Z,101663.97
2018-12-10T13:15:57.411Z,101664.62
2018-12-10T13:18:24.865Z,101671.09
2018-12-10T13:20:54.265Z,101672.82
2018-12-10T13:23:26.692Z,101671.57
2018-12-10T13:26:01.952Z,101673.98
2018-12-10T13:28:34.525Z,101664.64
2018-12-10T13:31:06.758Z,101662.86
2018-12-10T13:33:35.977Z,101665.33
2018-12-10T13:36:03.057Z,101672.23
2018-12-10T13:38:36.718Z,101668.67
2018-12-10T13:41:01.698Z,101678.30
2018-12-10T13:43:33.532Z,101668.80
2018-12-10T13:46:03.453Z,101672.95
2018-12-10T13:48:38.214Z,101672.59
2018-12-10T13:51:28.993Z,101678.80
2018-12-10T13:53:59.100Z,101689.56
2018-12-10T13:56:28.483Z,101683.60
2018-12-10T13:58:57.903Z,101681.94
2018-12-10T14:01:34.939Z,101684.03
2018-12-10T14:04:19.518Z,101678.20
2018-12-10T14:06:48.852Z,101679.22
2018-12-10T14:09:20.962Z,101684.25
2018-12-10T14:11:55.824Z,101678.91
2018-12-10T14:14:31.875Z,101697.55
2018-12-10T14:17:10.006Z,101700.95
2018-12-10T14:19:49.169Z,101708.03
2018-12-10T14:22:20.990Z,101712.78
2018-12-10T14:24:53.236Z,101712.78
2018-12-10T14:27:23.586Z,101705.99
2018-12-10T14:29:58.796Z,101707.94
2018-12-10T14:32:28.279Z,101704.41
2018-12-10T14:35:00.511Z,101703.17
2018-12-10T14:37:33.524Z,101702.96
2018-12-10T14:40:04.255Z,101707.84
2018-12-10T14:42:34.984Z,101710.64
2018-12-10T14:45:08.996Z,101714.42
2018-12-10T14:47:48.400Z,101719.74
2018-12-10T14:50:23.220Z,101723.56
2018-12-10T14:52:52.657Z,101723.54
2018-12-10T14:55:21.581Z,101725.48
2018-12-10T14:57:50.482Z,101726.14
2018-12-10T15:00:19.411Z,101732.58
2018-12-10T15:02:48.389Z,101750.42
2018-12-10T15:05:17.304Z,101755.48
2018-12-10T15:07:46.216Z,101769.22
2018-12-10T15:10:15.323Z,101772.91
2018-12-10T15:12:44.214Z,101765.29
2018-12-10T15:15:13.201Z,101773.12
2018-12-10T15:17:42.078Z,101762.75
2018-12-10T15:20:14.862Z,101770.91
2018-12-10T15:22:43.778Z,101765.86
2018-12-10T15:25:12.726Z,101775.50
2018-12-10T15:27:41.647Z,101773.66
2018-12-10T15:30:11.972Z,101765.58
2018-12-10T15:32:40.909Z,101768.55
2018-12-10T15:35:09.959Z,101768.25
2018-12-10T15:37:38.892Z,101767.55
2018-12-10T15:40:08.176Z,101767.94
2018-12-10T15:42:37.115Z,101770.11
2018-12-10T15:45:07.283Z,101772.03
2018-12-10T15:47:36.160Z,101775.58
2018-12-10T15:50:05.180Z,101785.09
2018-12-10T15:52:35.181Z,101780.70
2018-12-10T15:55:04.036Z,101779.62
2018-12-10T15:57:32.996Z,101784.31
2018-12-10T16:00:01.917Z,101785.14
2018-12-10T16:02:30.822Z,101787.08
2018-12-10T16:04:59.762Z,101793.31
2018-12-10T16:07:28.689Z,101800.20
2018-12-10T16:09:57.596Z,101800.95
2018-12-10T16:12:26.574Z,101805.36
2018-12-10T16:14:55.540Z,101808.16
2018-12-10T16:17:24.454Z,101806.77
2018-12-10T16:19:53.348Z,101806.57
2018-12-10T16:22:22.272Z,101807.21
2018-12-10T16:24:51.192Z,101803.25
2018-12-10T16:27:20.086Z,101802.39
2018-12-10T16:29:49.000Z,101810.41
2018-12-10T16:32:17.884Z,101810.47
2018-12-10T16:34:46.878Z,101803.73
2018-12-10T16:37:15.774Z,101803.20
2018-12-10T16:39:44.715Z,101794.65
2018-12-10T16:42:13.650Z,101800.88
2018-12-10T16:44:42.563Z,101803.67
2018-12-10T16:47:11.484Z,101795.89
2018-12-10T16:49:41.988Z,101800.93
2018-12-10T16:52:10.921Z,101799.89
2018-12-10T16:54:39.822Z,101807.21
2018-12-10T16:57:08.729Z,101814.10
2018-12-10T16:59:37.651Z,101812.56
2018-12-10T17:02:06.607Z,101813.48
2018-12-10T17:04:35.533Z,101816.53
2018-12-10T17:07:06.979Z,101814.83
2018-12-10T17:09:35.942Z,101828.41
2018-12-10T17:12:04.950Z,101829.36
2018-12-10T17:14:33.853Z,101833.64
2018-12-10T17:17:04.219Z,101834.11
2018-12-10T17:19:34.318Z,101839.48
2018-12-10T17:22:04.695Z,101838.73
2018-12-10T17:24:33.613Z,101832.77
2018-12-10T17:27:02.460Z,101833.55
2018-12-10T17:29:31.536Z,101835.25
2018-12-10T17:32:00.480Z,101830.98
2018-12-10T17:34:29.503Z,101822.00
2018-12-10T17:36:58.568Z,101814.02
2018-12-10T17:39:27.445Z,101816.39
2018-12-10T17:41:56.353Z,101822.16
2018-12-10T17:44:25.244Z,101817.18
2018-12-10T17:46:54.150Z,101821.45
2018-12-10T17:49:23.040Z,101823.66
2018-12-10T17:51:51.946Z,101820.27
2018-12-10T17:54:20.846Z,101815.20
2018-12-10T17:56:49.777Z,101825.80
2018-12-10T17:59:18.660Z,101832.84
2018-12-10T18:01:48.133Z,101830.39
2018-12-10T18:04:17.023Z,101831.41
2018-12-10T18:06:45.928Z,101830.86
2018-12-10T18:09:14.824Z,101836.71
2018-12-10T18:11:43.730Z,101840.98
2018-12-10T18:14:12.652Z,101831.66
2018-12-10T18:16:41.545Z,101840.16
2018-12-10T18:19:10.487Z,101832.68
2018-12-10T18:21:39.381Z,101840.08
2018-12-10T18:24:08.424Z,101838.06
2018-12-10T18:26:37.315Z,101848.55
2018-12-10T18:29:06.267Z,101852.97
2018-12-10T18:31:35.146Z,101867.92
2018-12-10T18:34:04.067Z,101871.30
2018-12-10T18:36:32.981Z,101867.50
2018-12-10T18:39:01.887Z,101868.92
2018-12-10T18:41:30.802Z,101856.22
2018-12-10T18:43:59.734Z,101856.73
2018-12-10T18:46:28.650Z,101865.24
2018-12-10T18:48:57.576Z,101862.32
2018-12-10T18:51:26.506Z,101854.72
2018-12-10T18:53:55.445Z,101861.84
2018-12-10T18:56:24.392Z,101858.00
2018-12-10T18:58:53.340Z,101854.52
2018-12-10T19:01:22.222Z,101857.37
2018-12-10T19:03:51.133Z,101856.61
2018-12-10T19:06:20.053Z,101855.31
2018-12-10T19:08:50.319Z,101851.28
2018-12-10T19:11:19.246Z,101850.92
2018-12-10T19:13:50.179Z,101845.65
2018-12-10T19:16:17.125Z,101848.50
2018-12-10T19:18:46.062Z,101846.31
2018-12-10T19:21:14.957Z,101851.92
2018-12-10T19:23:43.901Z,101848.14
2018-12-10T19:26:12.832Z,101856.61
2018-12-10T19:28:41.738Z,101861.31
2018-12-10T19:31:10.673Z,101868.65
2018-12-10T19:33:39.564Z,101868.40
2018-12-10T19:36:08.509Z,101866.98
2018-12-10T19:38:37.427Z,101862.73
2018-12-10T19:41:06.386Z,101868.19
2018-12-10T19:43:35.319Z,101874.18
2018-12-10T19:46:04.240Z,101878.13
2018-12-10T19:48:33.213Z,101877.95
2018-12-10T19:51:02.103Z,101872.55
2018-12-10T19:53:31.026Z,101874.95
2018-12-10T19:55:59.908Z,101867.53
2018-12-10T19:58:28.829Z,101873.84
2018-12-10T20:00:57.777Z,101866.51
2018-12-10T20:03:26.711Z,101863.61
2018-12-10T20:06:13.910Z,101863.98
2018-12-10T20:08:42.821Z,101872.98
2018-12-10T20:11:11.773Z,101870.00
2018-12-10T20:13:40.674Z,101869.75
2018-12-10T20:16:09.583Z,101871.89
2018-12-10T20:18:38.476Z,101867.14
2018-12-10T20:21:07.442Z,101871.75
2018-12-10T20:23:36.390Z,101874.98
2018-12-10T20:26:05.359Z,101876.72
2018-12-10T20:28:34.316Z,101872.69
2018-12-10T20:31:03.192Z,101869.14
2018-12-10T20:33:32.132Z,101868.66
2018-12-10T20:36:01.068Z,101870.08
2018-12-10T20:38:29.975Z,101876.47
2018-12-10T20:40:58.851Z,101880.89
2018-12-10T20:43:27.787Z,101877.52
2018-12-10T20:45:56.715Z,101867.46
2018-12-10T20:48:25.593Z,101873.92
2018-12-10T20:50:54.498Z,101882.01
2018-12-10T20:53:23.407Z,101874.49
2018-12-10T20:55:52.322Z,101878.67
2018-12-10T20:58:21.237Z,101869.05
2018-12-10T21:00:50.151Z,101872.34
2018-12-10T21:03:19.089Z,101871.80
2018-12-10T21:06:05.860Z,101879.92
2018-12-10T21:08:34.705Z,101867.64
2018-12-10T21:11:03.641Z,101873.92
2018-12-10T21:13:32.526Z,101883.34
2018-12-10T21:16:01.419Z,101877.49
2018-12-10T21:18:30.338Z,101885.41
2018-12-10T21:20:59.244Z,101885.14
2018-12-10T21:23:28.172Z,101886.73
2018-12-10T21:25:57.089Z,101887.68
2018-12-10T21:28:26.042Z,101881.37
2018-12-10T21:30:54.921Z,101883.53
2018-12-10T21:33:23.863Z,101884.52
2018-12-10T21:35:52.755Z,101877.34
2018-12-10T21:38:21.672Z,101876.55
2018-12-10T21:40:50.591Z,101872.73
2018-12-10T21:43:19.565Z,101872.81
2018-12-10T21:45:48.401Z,101875.43
2018-12-10T21:48:17.321Z,101882.70
2018-12-10T21:50:46.206Z,101875.45
2018-12-10T21:53:15.099Z,101874.66
2018-12-10T21:55:43.998Z,101873.86
2018-12-10T21:58:12.917Z,101873.64
2018-12-10T22:00:41.805Z,101872.44
2018-12-10T22:03:10.763Z,101872.70
2018-12-10T22:05:39.656Z,101864.64
2018-12-10T22:08:08.570Z,101872.70
2018-12-10T22:10:37.485Z,101877.67
2018-12-10T22:13:06.389Z,101877.27
2018-12-10T22:15:35.321Z,101878.83
2018-12-10T22:18:04.250Z,101877.56
2018-12-10T22:20:33.182Z,101881.52
2018-12-10T22:23:02.183Z,101891.50
2018-12-10T22:25:31.144Z,101894.73
2018-12-10T22:28:00.068Z,101894.33
2018-12-10T22:30:28.961Z,101888.02
2018-12-10T22:32:57.912Z,101890.38
2018-12-10T22:35:26.818Z,101896.62
2018-12-10T22:37:55.761Z,101901.66
2018-12-10T22:40:24.627Z,101903.48
2018-12-10T22:42:53.559Z,101907.10
2018-12-10T22:45:22.451Z,101910.27
2018-12-10T22:47:51.414Z,101900.86
2018-12-10T22:50:20.291Z,101899.48
2018-12-10T22:52:49.218Z,101909.43
2018-12-10T22:55:18.136Z,101907.51
2018-12-10T22:57:47.059Z,101911.86
2018-12-10T23:00:15.953Z,101909.72
2018-12-10T23:02:44.848Z,101909.03
2018-12-10T23:05:13.771Z,101911.71
2018-12-10T23:07:42.661Z,101908.92
2018-12-10T23:10:11.576Z,101909.25
2018-12-10T23:12:40.473Z,101916.87
2018-12-10T23:15:09.472Z,101917.31
2018-12-10T23:17:38.364Z,101928.70
2018-12-10T23:20:07.851Z,101920.03
2018-12-10T23:22:36.820Z,101933.28
2018-12-10T23:25:05.746Z,101931.06
2018-12-10T23:27:34.644Z,101936.61
2018-12-10T23:30:03.610Z,101930.30
2018-12-10T23:32:32.550Z,101933.94
2018-12-10T23:35:01.451Z,101932.66
2018-12-10T23:37:30.347Z,101927.04
2018-12-10T23:39:59.292Z,101929.98
2018-12-10T23:42:28.630Z,101926.25
2018-12-10T23:44:57.669Z,101931.02
2018-12-10T23:47:26.565Z,101924.20
2018-12-10T23:49:55.483Z,101918.44
2018-12-10T23:52:24.377Z,101927.52
2018-12-10T23:54:53.286Z,101926.31
2018-12-10T23:57:22.189Z,101927.04
2018-12-10T23:59:51.150Z,101921.66
